Corinne, UT

6:14 AM MDT on October 20, 2014 (GMT -0600)
Eagle's Lair | Change Station
CLOSE
Current Station
Personal Weather Station
Location: Hooper, UT
Elevation: 4218 ft
Nearby Weather Stations

Elev 4218 ft 41.19 °N, 112.12 °W | Updated 3 seconds ago

Clear
Clear
42.6 °F
Feels Like 43 °F
N
0.0
Wind Variable Wind from ENE
Gusts 0.0 mph

Today
High -- | Low -- °F
--% Chance of Precip.
Yesterday
High -- | Low -- °F
Precip. -- in
7:47 AM 6:41 PM
Waning Crescent, 11% visible
Pressure 30.05 in
Visibility 10.0 miles
Clouds Clear
Windchill 43 °F
Dew Point 38 °F
Humidity 83%
Rainfall 0.00 in
Snow Depth Not available.
UV 0 out of 12
Pollen 2.00 out of 12
Ozone Good
PM2.5 Good
Flu Activity Sporadic
METAR KBMC 201155Z AUTO 00000KT 10SM CLR 05/01 A3005 RMK AO1 T00540010 10367 20015

More Conditions Fewer Conditions

Pressure 30.05 in
Visibility 10.0 miles
Clouds Clear
Windchill 43 °F
Dew Point 38 °F
Humidity 83%
Rainfall 0.00 in
Snow Depth Not available.
UV 0 out of 12
Pollen 2.00 out of 12
Ozone Good
PM2.5 Good
Flu Activity Sporadic
METAR KBMC 201155Z AUTO 00000KT 10SM CLR 05/01 A3005 RMK AO1 T00540010 10367 20015

More Conditions Fewer Conditions

10-Day Weather Forecast

Almanac

Astronomy

Oct. 20, 2014 Rise Set
Actual Time 7:47 AM MDT 6:41 PM MDT
Civil Twilight 7:19 AM MDT 7:09 PM MDT
Nautical Twilight 6:47 AM MDT 7:41 PM MDT
Astronomical Twilight 6:15 AM MDT 8:13 PM MDT
Moon 4:37 AM MDT 5:07 PM MDT
Length of Visible Light 11h 50m
Length of Day
10h 54m
Waning Crescent, 11% of the Moon is Illuminated
Today
Waning Crescent
Oct 23
New
Oct 30
First Quarter
Nov 6
Full
Nov 14
Last Quarter

Today's Extremes

State Highs State Lows

Community

WunderPhotos

Upload Photos

1,763,349 photos uploaded!

Nearby

Air Quality

  Air Quality AQ Index Pollutant
Yesterday Good
PM10
Yesterday Good
OZONE
Current Good
PM2.5
Current Good
OZONE
Monday Good
OZONE
Tuesday Good
OZONE

Snow Depth

Station Depth Elevation
Ben Lomond Peak 0 in 8000 ft
Ben Lomond Trail 1 in 6000 ft
Little Bear 0 in 6550 ft
Farmington 0 in 8000 ft
Parrish Creek 0 in 7740 ft

Earthquake Activity

City Distance Mag. Time & Date
No recent earthquake activity has been reported nearby.
Minimum magnitude displayed is 2.5.

Coastal Water Temperatures

Place Temperature
No Stations Reporting

Nearby Weather Stations